createdAt,value
2019-04-05T00:02:01.901Z,38.47
2019-04-05T00:04:30.119Z,38.40
2019-04-05T00:07:00.629Z,39.80
2019-04-05T00:09:29.190Z,39.10
2019-04-05T00:11:59.254Z,38.33
2019-04-05T00:14:27.765Z,40.17
2019-04-05T00:16:59.098Z,41.07
2019-04-05T00:19:28.469Z,40.97
2019-04-05T00:21:56.570Z,40.53
2019-04-05T00:24:39.339Z,41.07
2019-04-05T00:27:08.379Z,39.63
2019-04-05T00:29:36.598Z,41.50
2019-04-05T00:32:04.827Z,41.93
2019-04-05T00:34:33.254Z,41.13
2019-04-05T00:37:01.501Z,38.63
2019-04-05T00:39:32.395Z,39.17
2019-04-05T00:42:02.724Z,36.83
2019-04-05T00:44:31.136Z,38.07
2019-04-05T00:46:59.868Z,37.73
2019-04-05T00:49:28.106Z,36.67
2019-04-05T00:51:58.863Z,35.97
2019-04-05T00:54:29.481Z,38.57
2019-04-05T00:56:58.112Z,37.07
2019-04-05T00:59:26.569Z,36.73
2019-04-05T01:01:54.725Z,37.97
2019-04-05T01:04:23.823Z,37.57
2019-04-05T01:06:52.029Z,37.10
2019-04-05T01:09:20.238Z,36.37
2019-04-05T01:11:48.487Z,37.20
2019-04-05T01:14:17.333Z,37.60
2019-04-05T01:16:45.563Z,36.87
2019-04-05T01:19:14.922Z,38.07
2019-04-05T01:21:45.945Z,38.97
2019-04-05T01:24:14.454Z,39.20
2019-04-05T01:26:44.913Z,38.57
2019-04-05T01:29:13.516Z,38.87
2019-04-05T01:31:41.571Z,38.73
2019-04-05T01:34:09.291Z,40.57
2019-04-05T01:36:37.410Z,41.33
2019-04-05T01:39:06.533Z,40.47
2019-04-05T01:41:34.796Z,40.97
2019-04-05T01:44:02.829Z,42.20
2019-04-05T01:46:31.080Z,43.70
2019-04-05T01:48:59.569Z,45.17
2019-04-05T01:51:27.640Z,47.80
2019-04-05T01:53:55.855Z,46.47
2019-04-05T01:56:23.899Z,47.63
2019-04-05T01:58:54.543Z,47.83
2019-04-05T02:01:22.712Z,51.97
2019-04-05T02:03:51.030Z,49.47
2019-04-05T02:06:21.861Z,50.90
2019-04-05T02:08:50.066Z,52.87
2019-04-05T02:11:18.271Z,51.97
2019-04-05T02:13:48.836Z,52.63
2019-04-05T02:16:17.644Z,56.53
2019-04-05T02:18:45.861Z,55.73
2019-04-05T02:21:14.356Z,59.77
2019-04-05T02:23:43.874Z,59.73
2019-04-05T02:26:14.791Z,60.73
2019-04-05T02:28:42.767Z,61.33
2019-04-05T02:39:46.525Z,57.53
2019-04-05T02:42:15.096Z,55.80
2019-04-05T02:44:46.010Z,56.83
2019-04-05T02:47:16.522Z,57.53
2019-04-05T02:49:45.537Z,56.00
2019-04-05T02:52:15.937Z,55.73
2019-04-05T02:54:45.157Z,53.90
2019-04-05T02:57:13.750Z,52.80
2019-04-05T02:59:43.725Z,52.90
2019-04-05T03:02:12.743Z,53.53
2019-04-05T03:04:40.882Z,54.20
2019-04-05T03:07:09.172Z,52.97
2019-04-05T03:09:37.708Z,54.00
2019-04-05T03:12:14.375Z,55.10
2019-04-05T03:14:42.706Z,53.60
2019-04-05T03:17:11.434Z,53.73
2019-04-05T03:19:46.390Z,54.60
2019-04-05T03:22:15.327Z,52.77
2019-04-05T03:24:47.309Z,52.77
2019-04-05T03:27:21.772Z,51.03
2019-04-05T03:29:50.893Z,51.20
2019-04-05T03:32:26.665Z,52.27
2019-04-05T03:34:55.486Z,48.83
2019-04-05T03:37:26.096Z,49.50
2019-04-05T03:40:01.471Z,47.43
2019-04-05T03:42:32.610Z,45.73
2019-04-05T03:45:01.157Z,46.10
2019-04-05T03:47:29.681Z,47.00
2019-04-05T03:49:59.259Z,48.47
2019-04-05T03:52:40.796Z,47.73
2019-04-05T03:55:09.860Z,50.37
2019-04-05T03:57:42.251Z,47.57
2019-04-05T04:00:11.613Z,48.77
2019-04-05T04:02:42.824Z,49.03
2019-04-05T04:05:10.936Z,49.83
2019-04-05T04:07:42.336Z,48.90
2019-04-05T04:10:20.417Z,50.83
2019-04-05T04:12:49.673Z,51.90
2019-04-05T04:15:18.160Z,54.30
2019-04-05T04:17:50.148Z,52.87
2019-04-05T04:20:35.626Z,53.07
2019-04-05T04:23:09.212Z,55.27
2019-04-05T04:25:52.722Z,51.97
2019-04-05T04:28:21.768Z,50.97
2019-04-05T04:30:51.023Z,53.63
2019-04-05T04:33:23.434Z,52.90
2019-04-05T04:35:55.459Z,54.37
2019-04-05T04:38:38.343Z,53.83
2019-04-05T04:41:06.782Z,55.90
2019-04-05T04:43:38.411Z,55.23
2019-04-05T04:46:10.930Z,54.80
2019-04-05T04:48:52.788Z,56.83
2019-04-05T04:51:19.960Z,54.10
2019-04-05T04:53:51.620Z,55.77
2019-04-05T04:56:29.330Z,55.97
2019-04-05T04:58:59.187Z,57.27
2019-04-05T05:01:35.707Z,54.00
2019-04-05T05:04:19.372Z,55.10
2019-04-05T05:10:29.791Z,55.47
2019-04-05T05:14:10.741Z,56.07
2019-04-05T05:15:57.328Z,55.03
2019-04-05T05:21:56.886Z,55.43
2019-04-05T05:28:41.585Z,54.77
2019-04-05T05:54:16.157Z,54.47
2019-04-05T05:56:50.506Z,52.93
2019-04-05T06:15:57.544Z,52.00
2019-04-05T06:18:25.787Z,53.13
2019-04-05T06:21:40.518Z,52.63
2019-04-05T06:24:08.853Z,50.77
2019-04-05T06:26:37.750Z,50.43
2019-04-05T06:29:16.840Z,52.53
2019-04-05T06:35:16.752Z,53.37
2019-04-05T06:37:47.146Z,52.70
2019-04-05T06:40:15.635Z,49.50
2019-04-05T06:42:55.631Z,49.50
2019-04-05T06:45:24.477Z,50.13
2019-04-05T06:54:25.112Z,49.20
2019-04-05T06:56:56.205Z,51.00
2019-04-05T06:59:32.739Z,53.63
2019-04-05T07:02:00.777Z,54.13
2019-04-05T07:04:42.384Z,54.03
2019-04-05T07:07:10.796Z,53.33
2019-04-05T07:09:39.911Z,53.37
2019-04-05T07:12:36.263Z,54.40
2019-04-05T07:15:08.054Z,52.67
2019-04-05T07:17:42.714Z,53.43
2019-04-05T07:20:11.517Z,54.07
2019-04-05T07:22:41.211Z,56.40
2019-04-05T07:25:12.178Z,55.63
2019-04-05T07:27:58.723Z,55.03
2019-04-05T07:30:41.967Z,54.63
2019-04-05T07:33:10.728Z,56.27
2019-04-05T07:35:41.273Z,53.63
2019-04-05T07:38:54.315Z,54.87
2019-04-05T07:44:48.134Z,54.27
2019-04-05T07:47:21.351Z,53.87
2019-04-05T07:49:50.009Z,55.87
2019-04-05T07:52:21.882Z,54.27
2019-04-05T07:55:02.862Z,55.13
2019-04-05T08:07:34.046Z,55.07
2019-04-05T08:10:05.578Z,54.97
2019-04-05T08:12:39.545Z,53.70
2019-04-05T08:21:20.437Z,52.90
2019-04-05T08:24:05.186Z,54.47
2019-04-05T08:26:47.964Z,55.20
2019-04-05T08:29:20.861Z,52.87
2019-04-05T08:38:45.062Z,53.13
2019-04-05T08:41:15.129Z,53.80
2019-04-05T08:43:54.787Z,52.73
2019-04-05T08:46:31.439Z,55.70
2019-04-05T08:55:14.647Z,55.37
2019-04-05T08:57:43.925Z,53.57
2019-04-05T09:00:14.936Z,52.83
2019-04-05T09:02:45.621Z,54.30
2019-04-05T09:19:08.280Z,53.17
2019-04-05T09:21:40.423Z,53.97
2019-04-05T09:24:34.456Z,52.93
2019-04-05T09:27:14.945Z,54.23
2019-04-05T09:29:50.929Z,54.20
2019-04-05T09:33:04.502Z,54.77
2019-04-05T09:35:40.864Z,54.07
2019-04-05T09:41:52.166Z,52.20
2019-04-05T09:44:26.589Z,50.77
2019-04-05T09:47:00.141Z,52.43
2019-04-05T09:49:37.100Z,51.27
2019-04-05T09:52:05.412Z,51.07
2019-04-05T09:54:42.966Z,50.83
2019-04-05T09:57:11.787Z,53.67
2019-04-05T09:59:42.675Z,50.73
2019-04-05T10:02:11.365Z,53.00
2019-04-05T10:04:40.057Z,50.60
2019-04-05T10:07:08.383Z,51.63
2019-04-05T10:09:44.613Z,51.90
2019-04-05T10:12:12.755Z,51.00
2019-04-05T10:14:41.316Z,51.80
2019-04-05T10:23:32.578Z,50.03
2019-04-05T10:26:03.429Z,51.17
2019-04-05T10:28:35.236Z,50.07
2019-04-05T10:31:15.787Z,50.77
2019-04-05T15:41:30.936Z,50.20
2019-04-05T15:44:05.335Z,49.37
2019-04-05T15:50:55.974Z,51.23
2019-04-05T15:53:41.002Z,49.20
2019-04-05T15:59:21.902Z,49.27
2019-04-05T16:01:55.831Z,52.00
2019-04-05T16:04:37.629Z,54.17
2019-04-05T16:07:13.478Z,51.90
2019-04-05T16:09:51.716Z,53.60
2019-04-05T16:12:28.535Z,51.60
2019-04-05T16:15:00.791Z,52.27
2019-04-05T16:17:41.257Z,51.57
2019-04-05T16:20:36.948Z,51.30
2019-04-05T16:26:41.855Z,51.33
2019-04-05T16:29:33.558Z,52.30
2019-04-05T16:32:17.282Z,51.83
2019-04-05T16:34:50.877Z,52.10
2019-04-05T16:37:20.464Z,50.77
2019-04-05T16:39:57.237Z,50.17
2019-04-05T16:42:44.281Z,50.40
2019-04-05T16:55:17.185Z,51.83
2019-04-05T16:57:54.302Z,48.57
2019-04-05T17:03:53.490Z,48.27
2019-04-05T17:06:37.034Z,48.80
2019-04-05T17:09:27.464Z,49.03
2019-04-05T17:12:07.174Z,47.93
2019-04-05T17:14:41.808Z,48.77
2019-04-05T17:17:27.909Z,48.90
2019-04-05T17:20:01.211Z,47.27
2019-04-05T17:22:57.521Z,49.03
2019-04-05T17:25:44.789Z,45.13
2019-04-05T17:28:30.403Z,47.47
2019-04-05T17:31:22.915Z,48.50
2019-04-05T17:34:01.979Z,46.93
2019-04-05T17:37:11.233Z,48.50
2019-04-05T17:39:40.374Z,48.83
2019-04-05T17:42:19.164Z,48.73
2019-04-05T17:44:50.187Z,49.87
2019-04-05T17:47:38.217Z,48.87
2019-04-05T17:50:15.250Z,47.23
2019-04-05T17:52:47.168Z,49.73
2019-04-05T17:55:15.344Z,47.43
2019-04-05T17:57:46.502Z,47.37
2019-04-05T18:00:20.292Z,49.00
2019-04-05T18:02:52.252Z,48.17
2019-04-05T18:05:27.284Z,49.07
2019-04-05T18:07:56.064Z,46.47
2019-04-05T18:10:28.241Z,47.50
2019-04-05T18:13:03.030Z,48.60
2019-04-05T18:15:33.483Z,47.43
2019-04-05T18:18:02.341Z,47.03
2019-04-05T18:20:32.742Z,48.73
2019-04-05T18:26:34.859Z,49.03
2019-04-05T18:29:07.310Z,46.97
2019-04-05T18:31:40.399Z,47.73
2019-04-05T18:34:12.670Z,45.37
2019-04-05T18:36:44.072Z,46.40
2019-04-05T18:39:15.576Z,45.80
2019-04-05T18:41:46.218Z,45.50
2019-04-05T18:44:15.520Z,46.47
2019-04-05T18:46:44.669Z,43.47
2019-04-05T18:49:15.490Z,46.83
2019-04-05T18:51:44.798Z,44.57
2019-04-05T18:54:15.727Z,44.30
2019-04-05T18:56:47.999Z,42.80
2019-04-05T18:59:16.419Z,40.57
2019-04-05T19:01:49.669Z,42.63
2019-04-05T19:04:18.557Z,42.87
2019-04-05T19:06:48.907Z,44.00
2019-04-05T19:10:01.434Z,44.70
2019-04-05T19:12:35.740Z,43.93
2019-04-05T19:15:10.956Z,45.77
2019-04-05T19:17:41.590Z,43.10
2019-04-05T19:20:10.022Z,41.77
2019-04-05T19:22:42.469Z,42.97
2019-04-05T19:25:12.850Z,44.53
2019-04-05T19:27:48.619Z,45.60
2019-04-05T19:48:35.380Z,48.10
2019-04-05T19:50:37.935Z,47.50
2019-04-05T19:53:12.055Z,47.70
2019-04-05T19:55:36.133Z,47.90
2019-04-05T19:58:05.030Z,48.27
2019-04-05T20:00:35.904Z,45.00
2019-04-05T20:03:05.049Z,47.73
2019-04-05T20:05:37.420Z,47.80
2019-04-05T20:08:17.480Z,47.87
2019-04-05T20:10:43.635Z,49.37
2019-04-05T20:13:12.330Z,49.53
2019-04-05T20:15:42.235Z,49.40
2019-04-05T20:18:11.852Z,46.30
2019-04-05T20:20:40.060Z,45.77
2019-04-05T20:26:56.539Z,47.83
2019-04-05T20:29:29.886Z,47.90
2019-04-05T20:31:59.802Z,49.73
2019-04-05T20:34:28.518Z,51.53
2019-04-05T20:37:07.824Z,49.50
2019-04-05T20:39:37.723Z,52.90
2019-04-05T20:42:06.592Z,53.13
2019-04-05T20:44:40.917Z,52.80
2019-04-05T20:47:16.688Z,50.63
2019-04-05T20:49:47.305Z,52.83
2019-04-05T20:52:34.395Z,48.87
2019-04-05T20:55:10.831Z,51.47
2019-04-05T20:57:44.551Z,50.90
2019-04-05T21:00:17.222Z,51.53
2019-04-05T21:02:49.461Z,52.63
2019-04-05T21:05:25.480Z,50.53
2019-04-05T21:07:55.010Z,53.70
2019-04-05T21:10:31.735Z,50.03
2019-04-05T21:13:03.062Z,48.93
2019-04-05T21:15:31.598Z,47.40
2019-04-05T21:18:09.373Z,44.97
2019-04-05T21:20:42.506Z,44.17
2019-04-05T21:23:10.734Z,43.50
2019-04-05T21:25:38.739Z,44.37
2019-04-05T21:28:07.454Z,41.63
2019-04-05T21:30:37.019Z,41.87
2019-04-05T21:33:06.776Z,44.50
2019-04-05T21:35:36.696Z,45.57
2019-04-05T21:38:09.992Z,49.93
2019-04-05T21:40:38.219Z,45.53
2019-04-05T21:46:25.976Z,39.17
2019-04-05T21:48:53.952Z,39.13
2019-04-05T21:51:24.628Z,38.97
2019-04-05T21:53:52.741Z,41.30
2019-04-05T21:56:20.740Z,41.83
2019-04-05T21:58:49.405Z,40.30
2019-04-05T22:01:20.312Z,40.03
2019-04-05T22:03:48.489Z,42.73
2019-04-05T22:06:16.831Z,44.00
2019-04-05T22:08:49.591Z,44.00
2019-04-05T22:11:18.052Z,40.47
2019-04-05T22:13:46.817Z,39.67
2019-04-05T22:16:15.598Z,38.13
2019-04-05T22:18:44.294Z,42.70
2019-04-05T22:21:12.358Z,41.63
2019-04-05T22:23:43.071Z,44.20
2019-04-05T22:26:10.876Z,51.23
2019-04-05T22:28:39.151Z,53.40
2019-04-05T22:31:07.299Z,50.50
2019-04-05T22:33:36.540Z,48.70
2019-04-05T22:36:04.426Z,47.33
2019-04-05T22:38:32.988Z,47.30
2019-04-05T22:41:04.682Z,46.93
2019-04-05T22:43:32.720Z,42.23
2019-04-05T22:46:01.332Z,40.70
2019-04-05T22:48:29.948Z,38.00
2019-04-05T22:51:00.854Z,35.40
2019-04-05T22:53:30.182Z,40.27
2019-04-05T22:55:58.281Z,35.60
2019-04-05T22:58:28.218Z,32.13
2019-04-05T23:00:58.929Z,29.73
2019-04-05T23:03:27.141Z,29.87
2019-04-05T23:05:55.318Z,29.97
2019-04-05T23:08:23.669Z,32.30
2019-04-05T23:10:52.313Z,33.57
2019-04-05T23:13:20.452Z,39.67
2019-04-05T23:15:48.661Z,35.07
2019-04-05T23:18:17.604Z,37.07
2019-04-05T23:20:45.591Z,40.87
2019-04-05T23:23:13.960Z,36.70
2019-04-05T23:25:42.556Z,39.20
2019-04-05T23:28:11.114Z,42.67
2019-04-05T23:30:39.261Z,39.77
2019-04-05T23:33:09.441Z,40.87
2019-04-05T23:35:37.895Z,39.13
2019-04-05T23:38:05.812Z,38.90
2019-04-05T23:40:33.965Z,41.13
2019-04-05T23:43:02.254Z,46.73
2019-04-05T23:45:30.275Z,49.30
2019-04-05T23:47:58.688Z,49.37
2019-04-05T23:50:26.811Z,48.90
2019-04-05T23:52:54.833Z,50.60
2019-04-05T23:55:32.800Z,49.60
2019-04-05T23:57:53.578Z,51.00
